Flight Track Log - Related Links

Times and Time Zones

All times are in EDT time to prevent confusion due to time zone crossing. See the AM223 flight status page for this flight to view local times or setup timezone preferences in your user account.

Time Position Orientation Groundspeed Altitude Reporting Facility
EDT Latitude Longitude Course Direction KTS MPH feet Rate Location/Type
Thu 07:05:52 AM -31.0650 150.8293 224° Southwest 137 158 2,200  Level Aus ATC (RADAR)
Thu 07:07:02 AM -31.0906 150.8001 224° Southwest 144 166 4,800 2,188 Climbing Aus ATC (RADAR)
Thu 07:07:17 AM -31.0996 150.8086 141° Southeast 156 180 5,300 2,259 Climbing Aus ATC (RADAR)
Thu 07:08:27 AM -31.1350 150.8546 132° Southeast 167 192 8,000 2,286 Climbing Aus ATC (RADAR)
Thu 07:09:02 AM -31.1568 150.8730 144° Southeast 167 192 9,300 2,400 Climbing Aus ATC (RADAR)
Thu 07:09:47 AM -31.1874 150.8815 167° South 153 176 11,200 2,280 Climbing Aus ATC (RADAR)
Thu 07:10:42 AM -31.2242 150.8918 167° South 152 175 13,100 2,067 Climbing Aus ATC (RADAR)
Thu 07:11:17 AM -31.2494 150.8985 167° South 158 182 14,300 1,933 Climbing Aus ATC (RADAR)
Thu 07:12:12 AM -31.2893 150.9090 167° South 160 184 16,000 1,800 Climbing Aus ATC (RADAR)
Thu 07:12:27 AM -31.2998 150.9112 170° South 157 181 16,400 1,700 Climbing Aus ATC (RADAR)
Thu 07:13:12 AM -31.3325 150.9159 173° South 159 183 17,700 1,733 Climbing Aus ATC (RADAR)
Thu 07:13:57 AM -31.3648 150.9212 172° South 158 182 19,000 1,600 Climbing Aus ATC (RADAR)
Thu 07:14:27 AM -31.3864 150.9249 172° South 158 182 19,700 1,171 Climbing Aus ATC (RADAR)
Thu 07:14:38 AM -31.3910 150.9260 172° South 160 184 19,800 845 Climbing FlightAware ADS-B
Thu 07:15:38 AM -31.4340 150.9330 172° South 163 188 20,700 540 Climbing FlightAware ADS-B
Thu 07:16:18 AM -31.4600 150.9380 171° South 163 188 20,700  Level FlightAware ADS-B
Thu 07:16:58 AM -31.4850 150.9420 172° South 163 188 20,700 414 Level FlightAware ADS-B
Thu 07:17:16 AM -31.5468 150.9509 172° South 249 287 21,100  Climbing Aus ATC (RADAR)
Thu 07:17:48 AM -31.5170 150.9480 172° South 163 188 20,700 -83 Descending FlightAware ADS-B
Thu 07:18:28 AM -31.6310 150.9650 173° South 262 302 21,000 343 Climbing FlightAware ADS-B
Thu 07:18:58 AM -31.6719 150.9712 173° South 271 312 21,100  Climbing Aus ATC (RADAR)
Thu 07:19:08 AM -31.6780 150.9720 173° South 263 303 21,000  Descending FlightAware ADS-B
Thu 07:19:46 AM -31.7328 150.9808 173° South 271 312 21,100  Climbing Aus ATC (RADAR)
Thu 07:19:48 AM -31.7260 150.9800 173° South 273 314 21,000 -128 Descending FlightAware ADS-B
Thu 07:20:33 AM -31.7860 150.9900 172° South 274 315 21,000 95 Level FlightAware ADS-B
Thu 07:20:51 AM -31.8145 150.9944 172° South 271 312 21,100  Climbing Aus ATC (RADAR)
Thu 07:21:13 AM -31.8370 150.9980 172° South 273 314 21,000 -90 Descending FlightAware ADS-B
Thu 07:21:58 AM -31.8930 151.0070 172° South 274 315 21,000 92 Level FlightAware ADS-B
Thu 07:22:18 AM -31.9235 151.0126 172° South 274 315 21,100  Climbing Aus ATC (RADAR)
Thu 07:22:38 AM -31.9440 151.0160 172° South 273 314 21,000 -92 Descending FlightAware ADS-B
Thu 07:23:23 AM -32.0010 151.0250 172° South 274 315 21,000 75 Level FlightAware ADS-B
Thu 07:23:58 AM -32.0491 151.0330 172° South 275 316 21,100  Climbing Aus ATC (RADAR)
Thu 07:24:03 AM -32.0510 151.0330 172° South 274 315 21,000 -133 Descending FlightAware ADS-B
Thu 07:24:43 AM -32.1020 151.0420 171° South 273 314 21,000  Level FlightAware ADS-B
Thu 07:25:28 AM -32.1570 151.0510 172° South 273 314 21,000  Level FlightAware ADS-B
Thu 07:25:47 AM -32.1871 151.0561 172° South 273 314 21,000  Level Aus ATC (RADAR)
Thu 07:26:08 AM -32.2070 151.0590 172° South 264 304 21,000  Level FlightAware ADS-B
Thu 07:26:48 AM -32.2580 151.0670 172° South 263 303 21,000  Level FlightAware ADS-B
Thu 07:27:12 AM -32.2931 151.0735 172° South 273 314 21,000  Level Aus ATC (RADAR)
Thu 07:27:33 AM -32.3140 151.0770 172° South 261 300 21,000  Level FlightAware ADS-B
Thu 07:28:18 AM -32.3690 151.0860 172° South 261 300 21,000  Level FlightAware ADS-B
Thu 07:28:55 AM -32.4205 151.0940 172° South 265 305 21,000  Level Aus ATC (RADAR)
Thu 07:28:58 AM -32.4190 151.0940 172° South 261 300 21,000  Level FlightAware ADS-B
Thu 07:29:27 AM -32.4604 151.1020 172° South 272 313 21,000  Level Aus ATC (RADAR)
Thu 07:29:38 AM -32.4680 151.1020 172° South 261 300 21,000  Level FlightAware ADS-B
Thu 07:30:15 AM -32.5193 151.1104 172° South 265 305 21,000  Level Aus ATC (RADAR)
Thu 07:30:23 AM -32.5240 151.1110 172° South 260 299 21,000  Level FlightAware ADS-B
Thu 07:31:03 AM -32.5730 151.1190 172° South 260 299 21,000  Level FlightAware ADS-B
Thu 07:31:48 AM -32.6270 151.1280 172° South 260 299 21,000  Level FlightAware ADS-B
Thu 07:32:28 AM -32.6770 151.1370 171° South 261 300 21,000  Level FlightAware ADS-B
Thu 07:33:08 AM -32.7270 151.1450 172° South 262 302 21,000  Level FlightAware ADS-B
Thu 07:33:53 AM -32.7830 151.1540 172° South 262 302 21,000  Level FlightAware ADS-B
Thu 07:34:30 AM -32.8343 151.1633 172° South 268 308 21,000  Level Aus ATC (RADAR)
Thu 07:34:33 AM -32.8330 151.1630 172° South 263 303 21,000  Level FlightAware ADS-B
Thu 07:35:13 AM -32.8800 151.1700 173° South 274 315 21,000 -847 Level FlightAware ADS-B
Thu 07:35:58 AM -32.9440 151.1810 172° South 295 339 19,800 -1,688 Descending FlightAware ADS-B
Thu 07:36:17 AM -32.9755 151.1867 172° South 302 348 19,200 -1,650 Descending Aus ATC (RADAR)
Thu 07:36:38 AM -32.9990 151.1900 172° South 305 351 18,700 -1,545 Descending FlightAware ADS-B
Thu 07:37:23 AM -33.0630 151.2010 172° South 306 352 17,500 -1,727 Descending FlightAware ADS-B
Thu 07:37:44 AM -33.0987 151.2072 172° South 299 344 16,800 -1,650 Descending Aus ATC (RADAR)
Thu 07:38:03 AM -33.1190 151.2100 172° South 295 339 16,400 -1,543 Descending FlightAware ADS-B
Thu 07:38:19 AM -33.1471 151.2149 172° South 296 341 15,900 -1,500 Descending Aus ATC (RADAR)
Thu 07:38:43 AM -33.1740 151.2190 172° South 280 322 15,400 -1,406 Descending FlightAware ADS-B
Thu 07:39:23 AM -33.2260 151.2200 172° South 271 312 14,400 -1,674 Descending FlightAware ADS-B
Thu 07:39:26 AM -33.2354 151.2201 172° South 283 326 14,200 -1,875 Descending Aus ATC (RADAR)
Thu 07:39:39 AM -33.2521 151.2190 172° South 276 318 13,900 -1,429 Descending Aus ATC (RADAR)
Thu 07:40:08 AM -33.2840 151.2180 172° South 278 320 13,200 -1,459 Descending FlightAware ADS-B
Thu 07:40:53 AM -33.3410 151.2150 183° South 277 319 12,100 -1,500 Descending FlightAware ADS-B
Thu 07:41:16 AM -33.3765 151.2128 183° South 281 323 11,500 -1,579 Descending Aus ATC (RADAR)
Thu 07:41:31 AM -33.3957 151.2117 183° South 279 321 11,100 -1,412 Descending Aus ATC (RADAR)
Thu 07:41:33 AM -33.3920 151.2120 183° South 278 320 11,100 -1,455 Level FlightAware ADS-B
Thu 07:42:04 AM -33.4374 151.2095 183° South 267 307 10,300 -1,350 Descending Aus ATC (RADAR)
Thu 07:42:13 AM -33.4410 151.2090 183° South 261 300 10,200 -1,385 Descending FlightAware ADS-B
Thu 07:42:43 AM -33.4810 151.2070 182° South 257 296 9,400 -1,636 Descending FlightAware ADS-B
Thu 07:43:08 AM -33.5110 151.2050 183° South 257 296 8,700 -1,527 Descending FlightAware ADS-B
Thu 07:43:38 AM -33.5490 151.2030 183° South 257 296 8,000 -1,400 Descending FlightAware ADS-B
Thu 07:44:08 AM -33.5790 151.2020 182° South 257 296 7,300 -1,600 Descending FlightAware ADS-B
Thu 07:44:23 AM -33.6092 151.1998 182° South 259 298 6,800 -1,680 Descending Aus ATC (RADAR)
Thu 07:44:33 AM -33.6160 151.2000 182° South 259 298 6,600 -1,500 Descending FlightAware ADS-B
Thu 07:45:03 AM -33.6500 151.1920 191° South 249 287 5,800 -1,800 Descending FlightAware ADS-B
Thu 07:45:33 AM -33.6840 151.1810 195° South 249 287 4,800 -2,100 Descending FlightAware ADS-B
Thu 07:45:43 AM -33.6940 151.1770 198° South 250 288 4,400 -2,229 Descending FlightAware ADS-B
Thu 07:46:08 AM -33.7240 151.1670 195° South 251 289 3,500 -2,000 Descending FlightAware ADS-B
Thu 07:46:25 AM -33.7464 151.1583 195° South 251 289 3,000 -857 Descending Aus ATC (RADAR)
Thu 07:46:43 AM -33.7570 151.1540 195° South 219 252 3,000  Level FlightAware ADS-B
Thu 07:47:00 AM -33.7783 151.1461 195° South 203 234 3,000  Level Aus ATC (RADAR)
Thu 07:47:08 AM -33.7810 151.1460 195° South 179 206 3,000  Level FlightAware ADS-B
Thu 07:47:33 AM -33.8000 151.1490 173° South 163 188 3,000 -400 Level FlightAware ADS-B
Thu 07:48:08 AM -33.8240 151.1550 168° South 149 171 2,600 -700 Descending FlightAware ADS-B
Thu 07:48:33 AM -33.8430 151.1600 168° South 154 177 2,300 -750 Descending FlightAware ADS-B
Thu 07:48:48 AM -33.8540 151.1630 167° South 151 174 2,100 -900 Descending FlightAware ADS-B
Thu 07:49:13 AM -33.8710 151.1680 166° South 149 171 1,700 -900 Descending FlightAware ADS-B
Thu 07:49:28 AM -33.8810 151.1710 166° South 144 166 1,500 -900 Descending FlightAware ADS-B
Thu 07:49:53 AM -33.8998 151.1754 166° South 136 157 1,100 -800 Descending Aus ATC (RADAR)
Thu 07:49:58 AM -33.9010 151.1760 166° South 140 161 1,100 -638 Level FlightAware ADS-B
Thu 07:50:40 AM -33.9290 151.1830 166° South 134 154 600 -714 Descending Aus ATC (RADAR)

Login

Don't have an account? Register now (free) for customized features, flight alerts, and more!